Daily Tabular Data
[Select Refresh to Update]


2/18/18
Time         Wind Dir   Wind Spd  Wind Gust     Hum In   Humidity    Temp In       Temp  Raw Barom   Tot Rain Wind Chill Heat Ix In Heat Index  Dew Point  DailyRain   HourRain   RainRate
                            mph        mph          %          %         F         F         in         in         F         F         F         F         in         in      in/hr
12:00am            84          1          2         30         48       71.1       56.4      29.19       1.93       56.4       70.3       57.0       37.0       0.00       0.00      0.000
12:30am            83          0          2         30         50       71.0       55.3      29.18       1.93       55.3       70.2       56.1       37.0       0.00       0.00      0.000
1:00am             30          0          2         30         52       70.9       55.2      29.18       1.93       55.2       70.1       56.2       37.9       0.00       0.00      0.000
1:30am             30          0          0         31         52       70.8       54.6      29.18       1.93       54.6       70.1       55.6       37.3       0.00       0.00      0.000
2:00am            301          0          1         31         50       70.6       55.5      29.17       1.93       55.5       69.9       56.3       37.2       0.00       0.00      0.000
2:30am             83          0          3         31         51       70.4       54.8      29.16       1.93       54.8       69.7       55.7       37.0       0.00       0.00      0.000
3:00am             88          2          3         31         49       70.2       55.5      29.16       1.93       55.5       69.5       56.2       36.7       0.00       0.00      0.000
3:30am             93          1          3         30         49       70.1       55.7      29.15       1.93       55.7       69.3       56.4       36.9       0.00       0.00      0.000
4:00am             82          0          2         30         46       70.1       56.7      29.14       1.93       56.7       69.3       57.1       36.2       0.00       0.00      0.000
4:30am             82          0          0         30         46       70.0       56.7      29.14       1.93       56.7       69.2       57.1       36.2       0.00       0.00     -0.010
5:00am             82          0          0         30         46       69.9       56.7      29.14       1.93       56.7       69.1       57.1       36.2       0.00       0.00     -0.010
5:30am             82          0          0         31         46       69.7       56.7      29.14       1.93       56.7       69.0       57.1       36.2       0.00       0.00     -0.010
6:00am             82          0          0         31         46       69.5       56.7      29.14       1.93       56.7       68.8       57.1       36.2       0.00       0.00     -0.010
6:30am             82          0          0         31         46       69.3       56.7      29.14       1.93       56.7       68.6       57.1       36.2       0.00       0.00     -0.010
7:00am             82          0          0         31         46       69.2       56.7      29.14       1.93       56.7       68.5       57.1       36.2       0.00       0.00     -0.010
7:30am             82          0          0         31         46       69.2       56.7      29.14       1.93       56.7       68.5       57.1       36.2       0.00       0.00     -0.010
8:00am             82          0          0         31         46       69.1       56.7      29.15       1.93       56.7       68.4       57.1       36.2       0.00       0.00     -0.010
8:30am            188          0          4         31         45       69.7       63.3      29.15       1.93       63.3       69.0       63.6       41.6       0.00       0.00      0.000
9:00am            176          2          3         31         42       69.8       64.5      29.15       1.93       64.5       69.1       64.6       40.9       0.00       0.00      0.000
9:30am            208          0          4         27         44       74.0       65.2      29.15       1.93       65.2       73.0       65.5       42.8       0.00       0.00      0.000
10:00am           261          2         12         30         56       71.2       61.5      29.16       1.93       61.5       70.4       62.9       45.7       0.00       0.00      0.000
10:30am           276          0          9         30         69       70.6       62.2      29.16       1.93       62.2       69.8       65.0       51.9       0.00       0.00      0.000
11:00am           281          1          7         31         61       70.4       63.5      29.15       1.93       63.5       69.7       65.4       49.8       0.00       0.00      0.000
11:30am           105          6         13         32         39       70.4       69.6      29.14       1.93       69.6       69.7       69.4       43.6       0.00       0.00      0.000
12:00pm           173          6         11         32         38       70.5       70.3      29.12       1.93       70.3       69.8       70.1       43.5       0.00       0.00      0.000
12:30pm           250          0         13         32         40       70.6       67.9      29.11       1.93       67.9       69.9       67.8       42.7       0.00       0.00      0.000
1:00pm            239          0         12         32         37       70.7       68.4      29.10       1.93       68.4       70.0       68.1       41.1       0.00       0.00      0.000
1:30pm            157          3         15         32         38       70.8       68.7      29.09       1.93       68.7       70.1       68.5       42.1       0.00       0.00      0.000
2:00pm            172          0         13         32         36       70.9       69.5      29.08       1.93       69.5       70.2       69.1       41.4       0.00       0.00      0.000
2:30pm            138          8         14         32         35       71.0       69.3      29.06       1.93       69.3       70.3       68.8       40.5       0.00       0.00      0.000
3:00pm            138          4         11         32         38       71.1       67.8      29.06       1.93       67.8       70.4       67.6       41.3       0.00       0.00      0.000
3:30pm            213          7         14         32         38       71.2       67.1      29.06       1.93       67.1       70.5       66.9       40.7       0.00       0.00      0.000
4:00pm            277          0         14         32         49       71.3       65.7      29.06       1.93       65.7       70.6       66.4       46.0       0.00       0.00      0.000
4:30pm            146          8         11         32         52       71.3       64.1      29.06       1.93       63.9       70.6       65.1       46.1       0.00       0.00      0.000
5:00pm            126          5         12         33         63       71.4       62.8      29.05       1.93       62.8       70.8       64.9       50.0       0.00       0.00      0.000
5:30pm            144          0         11         33         68       71.4       59.8      29.06       1.93       59.8       70.8       62.5       49.2       0.00       0.00      0.000
6:00pm            166          0         10         34         79       71.5       57.4      29.06       1.93       57.4       71.0       61.5       50.9       0.00       0.00      0.000
6:30pm            229          0          7         34         78       71.5       57.9      29.06       1.93       57.9       71.0       61.9       51.1       0.00       0.00      0.000
7:00pm            126          2          7         35         79       71.5       56.2      29.06       1.93       56.2       71.0       60.3       49.8       0.00       0.00      0.000
7:30pm             99          4          7         35         78       71.5       57.0      29.06       1.93       57.0       71.0       61.0       50.2       0.00       0.00      0.000
8:00pm            101          2          8         36         81       71.4       55.5      29.06       1.93       55.5       71.0       59.9       49.8       0.00       0.00      0.000